Time;durP1;ratioP1;P1;durP2;ratioP2;P2;SDS_P1;SDS_P2;PMS_P1;PMS_P2;Temp;Humidity;BMP_temperature;BMP_pressure;BME280_temperature;BME280_humidity;BME280_pressure;Samples;Min_cycle;Max_cycle;Signal;HPM_P1;HPM_P2
2021/09/05 00:01:49;;;;;;;1.98;0.80;;;20.00;63.80;;;;;;5085011;23;20029;-57
2021/09/05 00:03:52;;;;;;;1.73;0.90;;;20.10;63.90;;;;;;5085502;23;20720;-55
2021/09/05 00:05:54;;;;;;;1.80;0.73;;;20.00;63.80;;;;;;5087807;23;20032;-57
2021/09/05 00:07:56;;;;;;;3.03;1.00;;;20.00;63.60;;;;;;5088430;23;20087;-56
2021/09/05 00:09:58;;;;;;;3.30;0.75;;;20.00;63.50;;;;;;5062502;23;20030;-57
2021/09/05 00:12:00;;;;;;;2.08;0.95;;;20.00;63.20;;;;;;5087641;23;20029;-56
2021/09/05 00:14:03;;;;;;;0.93;0.70;;;20.00;63.00;;;;;;5088353;23;20060;-57
2021/09/05 00:16:05;;;;;;;0.95;0.80;;;20.00;63.20;;;;;;5087417;23;20056;-57
2021/09/05 00:18:07;;;;;;;1.33;0.65;;;20.00;63.00;;;;;;5087411;23;20027;-61
2021/09/05 00:20:10;;;;;;;5.13;0.90;;;20.00;62.90;;;;;;5087150;23;20154;-56
2021/09/05 00:22:12;;;;;;;3.40;1.00;;;20.00;63.10;;;;;;5083013;23;20025;-57
2021/09/05 00:24:15;;;;;;;2.05;0.95;;;20.00;62.60;;;;;;5079786;23;20769;-58
2021/09/05 00:26:17;;;;;;;2.15;0.90;;;20.00;62.70;;;;;;5082806;23;20071;-55
2021/09/05 00:28:19;;;;;;;3.13;0.77;;;20.00;62.50;;;;;;5086215;23;20029;-56
2021/09/05 00:30:21;;;;;;;4.00;1.00;;;20.00;62.50;;;;;;5084362;23;20025;-57
2021/09/05 00:32:23;;;;;;;3.47;0.80;;;20.00;62.60;;;;;;5085610;23;20096;-59
2021/09/05 00:34:25;;;;;;;1.00;0.70;;;20.10;62.70;;;;;;5083051;23;20126;-57
2021/09/05 00:36:28;;;;;;;1.60;0.70;;;20.10;62.60;;;;;;5083781;23;20023;-59
2021/09/05 00:38:30;;;;;;;2.08;0.75;;;20.10;62.60;;;;;;5084924;23;20297;-59
2021/09/05 00:40:32;;;;;;;0.60;0.50;;;20.10;62.50;;;;;;5085931;23;20055;-59
2021/09/05 00:42:34;;;;;;;1.70;0.80;;;20.10;62.40;;;;;;5085659;23;20035;-57
2021/09/05 00:44:37;;;;;;;5.47;1.08;;;20.10;62.10;;;;;;5034912;23;20069;-59
2021/09/05 00:46:40;;;;;;;1.63;0.70;;;20.20;62.20;;;;;;5060567;23;20792;-58
2021/09/05 00:48:42;;;;;;;1.85;0.68;;;20.20;62.20;;;;;;5082912;23;20037;-57
2021/09/05 00:50:44;;;;;;;3.50;0.90;;;20.20;62.10;;;;;;5086106;23;20025;-56
2021/09/05 00:52:46;;;;;;;1.52;0.70;;;20.20;62.60;;;;;;5083403;23;20032;-49
2021/09/05 00:54:49;;;;;;;2.22;0.77;;;20.20;61.80;;;;;;5084503;23;20134;-52
2021/09/05 00:56:51;;;;;;;3.53;0.77;;;20.20;61.20;;;;;;5083387;23;20036;-53
2021/09/05 00:58:55;;;;;;;1.42;0.65;;;20.20;61.20;;;;;;5085104;23;20028;-53
2021/09/05 01:00:59;;;;;;;1.15;0.70;;;20.20;61.20;;;;;;5087530;23;20032;-52
2021/09/05 01:03:04;;;;;;;0.85;0.50;;;20.20;60.70;;;;;;5087473;23;20040;-52
2021/09/05 01:05:07;;;;;;;1.85;1.00;;;20.20;60.40;;;;;;5089092;23;20369;-52
2021/09/05 01:07:11;;;;;;;1.15;0.63;;;20.20;60.00;;;;;;5062870;23;20917;-53
2021/09/05 01:09:13;;;;;;;1.00;0.65;;;20.20;59.80;;;;;;5090536;23;20069;-56
2021/09/05 01:11:18;;;;;;;1.05;0.63;;;20.20;59.80;;;;;;5092579;23;20028;-52
2021/09/05 01:13:20;;;;;;;0.70;0.60;;;20.10;59.60;;;;;;5068368;23;20100;-56
2021/09/05 01:15:23;;;;;;;0.77;0.70;;;20.10;58.50;;;;;;5070468;23;20052;-52
2021/09/05 01:17:25;;;;;;;3.33;0.80;;;20.10;57.70;;;;;;5099787;23;20104;-55
2021/09/05 01:19:27;;;;;;;4.03;0.82;;;20.10;56.90;;;;;;5096878;23;20046;-56
2021/09/05 01:21:29;;;;;;;1.55;0.70;;;20.10;54.40;;;;;;5074808;23;20922;-56
2021/09/05 01:23:31;;;;;;;3.33;0.77;;;20.10;55.00;;;;;;5071800;23;20112;-53
2021/09/05 01:25:34;;;;;;;4.28;1.20;;;20.10;54.80;;;;;;5075239;23;20029;-57
2021/09/05 01:27:36;;;;;;;19.85;2.63;;;20.00;55.00;;;;;;5091668;23;20170;-53
2021/09/05 01:29:38;;;;;;;4.28;1.17;;;20.00;55.70;;;;;;5090123;23;20095;-57
2021/09/05 01:31:46;;;;;;;10.43;1.15;;;20.10;55.10;;;;;;5096325;23;20038;-58
2021/09/05 01:33:48;;;;;;;17.60;1.83;;;20.10;54.20;;;;;;5094222;23;20100;-61
2021/09/05 01:35:50;;;;;;;8.20;1.47;;;20.10;53.50;;;;;;5097278;23;20051;-55
2021/09/05 01:37:52;;;;;;;4.75;1.48;;;20.10;53.10;;;;;;5091808;23;20259;-58
2021/09/05 01:39:55;;;;;;;16.98;1.80;;;20.10;53.60;;;;;;5097550;23;20043;-58
2021/09/05 01:41:57;;;;;;;6.65;1.23;;;20.10;53.00;;;;;;5091435;23;20092;-61
2021/09/05 01:44:05;;;;;;;14.38;1.67;;;20.10;53.10;;;;;;5026571;23;20386;-57
2021/09/05 01:46:07;;;;;;;1.98;0.68;;;20.10;53.50;;;;;;5093663;23;20453;-53
2021/09/05 01:48:09;;;;;;;2.65;1.02;;;20.10;53.40;;;;;;5092041;23;20092;-58
2021/09/05 01:50:12;;;;;;;5.13;0.85;;;20.10;54.40;;;;;;5089926;23;20047;-60
2021/09/05 01:52:14;;;;;;;2.47;0.85;;;20.10;53.50;;;;;;5090414;23;20103;-60
2021/09/05 01:54:16;;;;;;;2.25;0.63;;;20.10;53.50;;;;;;5082883;23;20035;-61
2021/09/05 01:56:18;;;;;;;1.08;0.70;;;20.10;54.30;;;;;;5084443;23;20033;-59
2021/09/05 01:58:20;;;;;;;4.55;1.02;;;20.10;53.90;;;;;;5085584;23;20029;-57
2021/09/05 02:00:23;;;;;;;4.63;0.75;;;20.10;53.30;;;;;;5087435;23;20109;-56
2021/09/05 02:02:25;;;;;;;2.88;0.93;;;20.10;54.00;;;;;;5086520;23;20071;-58
2021/09/05 02:04:27;;;;;;;3.90;1.23;;;20.10;53.40;;;;;;5085408;23;20029;-57
2021/09/05 02:06:29;;;;;;;2.63;1.02;;;20.10;53.90;;;;;;5091329;23;20751;-53
2021/09/05 02:08:34;;;;;;;2.40;1.33;;;20.10;53.90;;;;;;5085248;23;20032;-57
2021/09/05 02:10:36;;;;;;;3.60;1.10;;;20.10;54.20;;;;;;5086333;23;20029;-56
2021/09/05 02:12:38;;;;;;;3.00;1.10;;;20.10;54.20;;;;;;5088207;23;20124;-59
2021/09/05 02:14:40;;;;;;;5.10;1.10;;;20.10;54.20;;;;;;5087705;23;20021;-59
2021/09/05 02:16:43;;;;;;;7.85;1.38;;;20.10;54.60;;;;;;5082242;23;20040;-60
2021/09/05 02:18:46;;;;;;;10.50;1.83;;;20.10;55.40;;;;;;5084616;23;20025;-56
2021/09/05 02:20:48;;;;;;;6.78;1.30;;;20.10;55.30;;;;;;5086933;23;20033;-49
2021/09/05 02:22:50;;;;;;;7.90;1.77;;;20.20;55.40;;;;;;5110206;23;20028;-60
2021/09/05 02:24:53;;;;;;;8.23;1.83;;;20.20;55.40;;;;;;5088252;23;20029;-62
2021/09/05 02:26:55;;;;;;;11.40;1.88;;;20.20;57.80;;;;;;5085585;23;20025;-60
2021/09/05 02:28:57;;;;;;;11.52;2.03;;;20.20;56.30;;;;;;5086743;23;20032;-60
2021/09/05 02:30:59;;;;;;;8.15;1.85;;;20.20;56.00;;;;;;5086583;23;20472;-58
2021/09/05 02:33:02;;;;;;;7.93;1.47;;;20.20;55.60;;;;;;5088611;23;20029;-53
2021/09/05 02:35:06;;;;;;;6.75;2.08;;;20.20;55.20;;;;;;5088725;23;20033;-57
2021/09/05 02:37:09;;;;;;;;;;;20.20;55.30;;;;;;5089874;23;20032;-58
2021/09/05 02:39:11;;;;;;;9.47;1.67;;;20.20;55.70;;;;;;5085693;23;20005;-58
2021/09/05 02:41:13;;;;;;;5.18;1.55;;;20.20;56.00;;;;;;5109426;23;20560;-68
2021/09/05 02:43:16;;;;;;;10.13;2.33;;;20.20;56.00;;;;;;5086418;23;20029;-54
2021/09/05 02:45:18;;;;;;;12.57;3.20;;;20.20;56.40;;;;;;5088364;23;20025;-55
2021/09/05 02:47:20;;;;;;;13.18;2.40;;;20.20;56.80;;;;;;5138106;23;20794;-62
2021/09/05 02:49:22;;;;;;;8.15;1.90;;;20.20;56.50;;;;;;5135469;23;20154;-61
2021/09/05 02:51:24;;;;;;;12.50;3.33;;;20.20;57.00;;;;;;5088369;23;20083;-53
2021/09/05 02:53:26;;;;;;;10.18;2.10;;;20.30;56.80;;;;;;5086006;23;20069;-54
2021/09/05 02:55:29;;;;;;;9.63;2.42;;;20.30;57.30;;;;;;5087432;23;20108;-52
2021/09/05 02:57:31;;;;;;;10.38;2.00;;;20.30;56.70;;;;;;5085637;23;20033;-60
2021/09/05 02:59:33;;;;;;;9.25;1.95;;;20.30;56.50;;;;;;5086242;23;20029;-56
2021/09/05 03:01:36;;;;;;;7.50;1.85;;;20.30;56.90;;;;;;5089877;23;20025;-51
2021/09/05 03:03:38;;;;;;;7.22;1.85;;;20.30;55.60;;;;;;5086180;23;20029;-52
2021/09/05 03:05:40;;;;;;;10.13;2.00;;;20.30;55.30;;;;;;5089608;23;20079;-56
2021/09/05 03:07:42;;;;;;;4.45;1.67;;;20.30;55.60;;;;;;5087140;23;20055;-58
2021/09/05 03:09:44;;;;;;;6.60;1.50;;;20.30;55.70;;;;;;5088107;23;20024;-58
2021/09/05 03:11:47;;;;;;;4.03;1.48;;;20.30;55.50;;;;;;5085696;23;20032;-55
2021/09/05 03:13:49;;;;;;;9.02;1.77;;;20.30;55.10;;;;;;5085419;23;20131;-55
2021/09/05 03:15:51;;;;;;;8.23;1.92;;;20.30;55.20;;;;;;5085646;23;21058;-55
2021/09/05 03:17:53;;;;;;;4.90;1.80;;;20.30;55.10;;;;;;5086183;23;20032;-56
2021/09/05 03:19:55;;;;;;;6.43;1.70;;;20.30;55.10;;;;;;5060389;23;20040;-56
2021/09/05 03:21:57;;;;;;;5.40;1.50;;;20.30;55.10;;;;;;5088428;23;20412;-59
2021/09/05 03:23:59;;;;;;;3.30;1.60;;;20.30;55.10;;;;;;5086906;23;20048;-57
2021/09/05 03:26:01;;;;;;;7.90;1.55;;;20.30;54.80;;;;;;5109447;23;20075;-57
2021/09/05 03:28:04;;;;;;;3.65;1.15;;;20.30;54.80;;;;;;5083044;23;20045;-58
2021/09/05 03:30:07;;;;;;;3.95;1.10;;;20.30;54.90;;;;;;5083925;22;20025;-55
2021/09/05 03:32:09;;;;;;;5.72;1.38;;;20.30;54.70;;;;;;5085442;23;20036;-56
2021/09/05 03:34:11;;;;;;;3.90;1.35;;;20.30;54.50;;;;;;5083769;23;20137;-54
2021/09/05 03:36:13;;;;;;;3.72;0.93;;;20.30;54.40;;;;;;5087837;23;20064;-52
2021/09/05 03:38:16;;;;;;;5.00;1.20;;;20.30;54.40;;;;;;5083996;23;20466;-54
2021/09/05 03:40:18;;;;;;;2.63;0.95;;;20.30;54.30;;;;;;5085905;23;20123;-53
2021/09/05 03:42:20;;;;;;;1.58;0.73;;;20.40;54.40;;;;;;5087699;23;20084;-53
2021/09/05 03:44:22;;;;;;;2.45;1.20;;;20.40;53.50;;;;;;5085895;23;20029;-56
2021/09/05 03:46:24;;;;;;;5.43;1.38;;;20.40;52.70;;;;;;5088553;23;20119;-56
2021/09/05 03:48:26;;;;;;;3.45;1.40;;;20.40;52.10;;;;;;5086338;23;20025;-55
2021/09/05 03:50:28;;;;;;;4.32;1.77;;;20.40;51.90;;;;;;5087732;23;20085;-55
2021/09/05 03:52:32;;;;;;;5.72;1.98;;;20.40;51.70;;;;;;5085540;23;20552;-55
2021/09/05 03:54:34;;;;;;;3.10;1.70;;;20.40;51.80;;;;;;5087875;23;20103;-52
2021/09/05 03:56:36;;;;;;;3.28;1.70;;;20.50;51.50;;;;;;5087918;23;20035;-55
2021/09/05 03:58:38;;;;;;;5.82;1.95;;;20.50;51.60;;;;;;5085918;23;20025;-57
2021/09/05 04:00:40;;;;;;;4.07;1.85;;;20.60;51.40;;;;;;5084912;23;20086;-54
2021/09/05 04:02:43;;;;;;;4.13;1.73;;;20.60;51.20;;;;;;5085998;23;20025;-53
2021/09/05 04:04:45;;;;;;;3.92;2.15;;;20.60;50.90;;;;;;5087386;23;20065;-55
2021/09/05 04:07:00;;;;;;;3.78;1.90;;;20.70;50.80;;;;;;5087410;23;20546;-58
2021/09/05 04:09:09;;;;;;;5.07;1.70;;;20.70;50.90;;;;;;5085986;23;20079;-56
2021/09/05 04:11:11;;;;;;;3.13;1.35;;;20.70;50.30;;;;;;5086423;23;20099;-55
2021/09/05 04:13:15;;;;;;;3.42;1.60;;;20.80;50.10;;;;;;5087100;23;20044;-57
2021/09/05 04:15:17;;;;;;;3.40;1.67;;;20.80;50.80;;;;;;5084972;23;20029;-58
2021/09/05 04:17:19;;;;;;;3.58;1.70;;;20.80;50.70;;;;;;5086953;23;20370;-55
2021/09/05 04:19:21;;;;;;;3.92;1.80;;;20.80;51.00;;;;;;5084664;23;20792;-54
2021/09/05 04:21:23;;;;;;;4.90;2.03;;;20.80;51.20;;;;;;5089333;23;20036;-57
2021/09/05 04:23:26;;;;;;;5.03;1.65;;;20.90;51.60;;;;;;5086719;23;20024;-57
2021/09/05 04:25:28;;;;;;;4.72;1.67;;;21.00;51.70;;;;;;5086696;23;20347;-56
2021/09/05 04:27:30;;;;;;;5.07;1.88;;;21.00;51.90;;;;;;5087287;23;20511;-57
2021/09/05 04:29:32;;;;;;;4.95;1.83;;;21.10;51.80;;;;;;5088543;23;20033;-59
2021/09/05 04:31:34;;;;;;;3.38;1.50;;;21.10;51.70;;;;;;5088948;23;20994;-56
2021/09/05 04:33:37;;;;;;;3.35;1.50;;;21.20;51.80;;;;;;5087304;23;20024;-56
2021/09/05 04:35:39;;;;;;;4.15;1.77;;;21.20;51.90;;;;;;5088305;23;20036;-59
2021/09/05 04:37:41;;;;;;;5.65;1.95;;;21.30;51.80;;;;;;5108405;23;20032;-58
2021/09/05 04:39:43;;;;;;;4.40;1.65;;;21.30;51.70;;;;;;5084592;23;20060;-58
2021/09/05 04:41:46;;;;;;;3.10;1.50;;;21.30;51.80;;;;;;5085232;23;20132;-55
2021/09/05 04:43:48;;;;;;;3.60;1.50;;;21.40;51.80;;;;;;5089701;23;20161;-54
2021/09/05 04:45:50;;;;;;;3.70;1.90;;;21.50;51.80;;;;;;5088643;23;20116;-54
2021/09/05 04:47:52;;;;;;;2.63;1.80;;;21.50;51.80;;;;;;5088741;23;20044;-58
2021/09/05 04:49:54;;;;;;;3.42;1.77;;;21.60;51.90;;;;;;5087504;23;20740;-55
2021/09/05 04:51:57;;;;;;;3.15;1.80;;;21.70;51.80;;;;;;5089098;23;20031;-57
2021/09/05 04:53:59;;;;;;;5.78;1.90;;;21.70;51.80;;;;;;5088408;23;20036;-52
2021/09/05 04:56:01;;;;;;;6.38;2.25;;;21.80;51.60;;;;;;5089130;23;20091;-56
2021/09/05 04:58:03;;;;;;;4.72;2.20;;;21.80;51.40;;;;;;5087902;23;20052;-55
2021/09/05 05:00:06;;;;;;;4.22;1.85;;;21.80;51.40;;;;;;5086779;23;20029;-57
2021/09/05 05:02:08;;;;;;;2.78;1.50;;;21.80;51.40;;;;;;5088132;23;20096;-56
2021/09/05 05:04:10;;;;;;;3.47;1.75;;;21.70;51.30;;;;;;5088161;23;20035;-53
2021/09/05 05:06:15;;;;;;;3.00;1.80;;;21.60;51.40;;;;;;5087010;23;20036;-55
2021/09/05 05:08:17;;;;;;;2.92;1.75;;;21.60;51.50;;;;;;5083765;23;20127;-58
2021/09/05 05:10:19;;;;;;;3.78;2.00;;;21.50;51.50;;;;;;5086913;23;20025;-51
2021/09/05 05:12:21;;;;;;;2.67;2.08;;;21.50;51.60;;;;;;5088559;23;20060;-55
2021/09/05 05:14:23;;;;;;;2.08;1.70;;;21.50;51.00;;;;;;5088194;23;20035;-56
2021/09/05 05:16:25;;;;;;;2.00;1.60;;;21.50;50.80;;;;;;5088212;23;20103;-59
2021/09/05 05:18:28;;;;;;;2.22;1.63;;;21.60;50.40;;;;;;5085607;23;20029;-56
2021/09/05 05:20:30;;;;;;;4.85;1.80;;;21.50;50.40;;;;;;5086360;23;20102;-55
2021/09/05 05:22:32;;;;;;;4.85;1.90;;;21.60;50.70;;;;;;5088917;23;20765;-57
2021/09/05 05:24:34;;;;;;;4.35;1.60;;;21.50;50.90;;;;;;5086661;23;20029;-57
2021/09/05 05:26:36;;;;;;;5.70;1.70;;;21.50;51.40;;;;;;5089242;23;20029;-56
2021/09/05 05:28:38;;;;;;;5.65;2.00;;;21.50;51.70;;;;;;5088215;23;20033;-54
2021/09/05 05:30:41;;;;;;;3.22;1.65;;;21.60;51.80;;;;;;5089205;23;20120;-58
2021/09/05 05:32:43;;;;;;;4.00;1.70;;;21.60;52.10;;;;;;5085667;23;20036;-57
2021/09/05 05:34:45;;;;;;;1.42;1.25;;;21.70;52.20;;;;;;5086242;23;20025;-55
2021/09/05 05:36:47;;;;;;;2.03;1.27;;;21.70;51.80;;;;;;5083282;23;20029;-57
2021/09/05 05:38:49;;;;;;;3.90;1.58;;;21.80;51.60;;;;;;5086254;23;20035;-55
2021/09/05 05:40:52;;;;;;;2.78;1.50;;;21.70;51.70;;;;;;5084417;23;20028;-55
2021/09/05 05:42:54;;;;;;;1.65;1.30;;;21.70;51.90;;;;;;5086793;23;20052;-56
2021/09/05 05:44:56;;;;;;;3.73;1.43;;;21.60;52.10;;;;;;5084847;23;20036;-59
2021/09/05 05:46:59;;;;;;;2.33;1.42;;;21.60;52.20;;;;;;5088677;23;20025;-55
2021/09/05 05:49:01;;;;;;;2.05;1.17;;;21.60;52.20;;;;;;5088752;23;20029;-58
2021/09/05 05:51:03;;;;;;;1.38;1.13;;;21.60;52.40;;;;;;5089978;23;20381;-55
2021/09/05 05:53:05;;;;;;;1.52;1.30;;;21.60;52.60;;;;;;5089567;23;20048;-56
2021/09/05 05:55:08;;;;;;;1.83;1.27;;;21.50;52.50;;;;;;5090077;23;20414;-58
2021/09/05 05:57:10;;;;;;;2.08;1.30;;;21.50;52.70;;;;;;5091973;23;20961;-56
2021/09/05 05:59:12;;;;;;;2.88;1.20;;;21.50;52.90;;;;;;5085665;23;20089;-57
2021/09/05 06:01:14;;;;;;;2.05;1.25;;;21.50;53.00;;;;;;5091129;23;20094;-56
2021/09/05 06:03:16;;;;;;;1.17;1.02;;;21.50;53.10;;;;;;5093352;23;20025;-58
2021/09/05 06:05:19;;;;;;;2.35;1.38;;;21.40;53.20;;;;;;5093583;23;20100;-58
2021/09/05 06:07:21;;;;;;;9.95;1.40;;;21.40;53.20;;;;;;5096923;23;20029;-57
2021/09/05 06:09:23;;;;;;;2.50;1.13;;;21.40;53.20;;;;;;5098815;23;20029;-59
2021/09/05 06:11:26;;;;;;;1.48;0.93;;;21.50;53.40;;;;;;5100211;23;20131;-58
2021/09/05 06:13:28;;;;;;;1.40;1.27;;;21.50;53.10;;;;;;5098093;23;20033;-58
2021/09/05 06:15:30;;;;;;;1.75;1.10;;;21.50;52.90;;;;;;5099595;23;20028;-58
2021/09/05 06:17:33;;;;;;;2.10;0.80;;;21.50;51.70;;;;;;5101765;23;20084;-58
2021/09/05 06:19:35;;;;;;;6.75;1.00;;;21.40;48.00;;;;;;5100767;23;20029;-58
2021/09/05 06:21:37;;;;;;;0.90;0.68;;;21.40;47.00;;;;;;5067226;23;20068;-58
2021/09/05 06:23:39;;;;;;;1.80;0.90;;;21.40;46.60;;;;;;5089110;23;20092;-57
2021/09/05 06:25:41;;;;;;;1.67;1.10;;;21.30;46.90;;;;;;5099268;23;20025;-50
2021/09/05 06:27:44;;;;;;;1.10;1.00;;;21.30;47.30;;;;;;5099311;23;20319;-59
2021/09/05 06:29:46;;;;;;;1.57;1.20;;;21.20;47.10;;;;;;5099349;23;20077;-55
2021/09/05 06:31:48;;;;;;;1.08;0.93;;;21.20;47.10;;;;;;5120982;23;20278;-57
2021/09/05 06:33:50;;;;;;;1.55;1.15;;;21.10;47.10;;;;;;5099866;23;20032;-57
2021/09/05 06:35:53;;;;;;;1.98;0.95;;;21.10;47.00;;;;;;5094737;23;20057;-56
2021/09/05 06:37:55;;;;;;;1.40;0.98;;;21.10;46.80;;;;;;5067359;23;20056;-55
2021/09/05 06:39:57;;;;;;;1.20;1.10;;;21.00;46.80;;;;;;5092262;23;20021;-58
2021/09/05 06:42:00;;;;;;;12.35;3.63;;;21.00;47.40;;;;;;5094033;23;20384;-58
2021/09/05 06:44:02;;;;;;;9.40;3.20;;;20.90;48.10;;;;;;5094127;23;20103;-57
2021/09/05 06:46:04;;;;;;;7.40;2.40;;;20.90;48.10;;;;;;5094201;23;20024;-58
2021/09/05 06:48:06;;;;;;;3.75;2.00;;;20.90;48.10;;;;;;5087428;23;20029;-57
2021/09/05 06:50:11;;;;;;;4.93;1.45;;;20.80;47.70;;;;;;5084391;23;20029;-56
2021/09/05 06:52:13;;;;;;;5.82;2.03;;;20.80;48.00;;;;;;5086839;23;20053;-55
2021/09/05 06:54:16;;;;;;;4.55;1.90;;;20.80;47.60;;;;;;5087422;23;20100;-56
2021/09/05 06:56:18;;;;;;;4.50;2.03;;;20.80;48.20;;;;;;5085752;23;20091;-56
2021/09/05 06:58:20;;;;;;;6.03;2.30;;;20.80;48.20;;;;;;5088597;23;20048;-58
2021/09/05 07:00:22;;;;;;;8.43;2.30;;;20.70;47.70;;;;;;5087534;23;20047;-55
2021/09/05 07:02:25;;;;;;;3.75;1.73;;;20.70;47.70;;;;;;5085075;23;20056;-59
2021/09/05 07:04:27;;;;;;;5.53;2.03;;;20.70;47.60;;;;;;5136095;23;20038;-57
2021/09/05 07:06:29;;;;;;;6.57;1.90;;;20.70;47.50;;;;;;5088227;23;20171;-52
2021/09/05 07:08:32;;;;;;;4.28;1.80;;;20.60;47.50;;;;;;5088065;23;20509;-59
2021/09/05 07:10:37;;;;;;;5.18;2.10;;;20.60;48.00;;;;;;5085685;23;20127;-55
2021/09/05 07:12:40;;;;;;;3.80;1.67;;;20.60;49.00;;;;;;5083890;23;20681;-57
2021/09/05 07:14:42;;;;;;;4.25;2.08;;;20.60;48.50;;;;;;5081040;23;20380;-57
2021/09/05 07:16:45;;;;;;;3.50;1.60;;;20.50;48.60;;;;;;5082869;23;20060;-57
2021/09/05 07:18:47;;;;;;;4.05;1.65;;;20.50;49.50;;;;;;5082161;23;20057;-52
2021/09/05 07:20:49;;;;;;;3.53;1.90;;;20.50;49.70;;;;;;5083569;23;20029;-52
2021/09/05 07:22:51;;;;;;;3.55;1.70;;;20.50;49.50;;;;;;5077131;23;20613;-54
2021/09/05 07:24:54;;;;;;;3.80;1.77;;;20.50;49.30;;;;;;5081699;23;20131;-52
2021/09/05 07:26:56;;;;;;;2.55;1.40;;;20.50;49.30;;;;;;5082147;23;20037;-55
2021/09/05 07:28:58;;;;;;;5.10;1.83;;;20.50;49.10;;;;;;5078987;23;20026;-54
2021/09/05 07:31:01;;;;;;;2.60;1.30;;;20.50;49.50;;;;;;5083023;23;20025;-54
2021/09/05 07:33:03;;;;;;;4.93;1.90;;;20.40;49.80;;;;;;5080850;23;20029;-49
2021/09/05 07:35:06;;;;;;;3.10;1.63;;;20.40;49.90;;;;;;5084001;23;20033;-54
2021/09/05 07:37:09;;;;;;;6.80;2.10;;;20.40;50.10;;;;;;5084866;23;20805;-52
2021/09/05 07:39:12;;;;;;;3.88;1.95;;;20.40;50.50;;;;;;5087196;23;20725;-51
2021/09/05 07:41:14;;;;;;;2.75;1.80;;;20.40;50.10;;;;;;5084097;23;20028;-56
2021/09/05 07:43:16;;;;;;;4.40;1.88;;;20.40;51.00;;;;;;5087375;23;20141;-57
2021/09/05 07:45:19;;;;;;;3.75;1.92;;;20.40;50.40;;;;;;5088021;23;20537;-56
2021/09/05 07:47:21;;;;;;;6.22;2.10;;;20.40;50.40;;;;;;5086083;23;20029;-56
2021/09/05 07:49:23;;;;;;;3.72;1.70;;;20.30;50.60;;;;;;5085790;23;20076;-51
2021/09/05 07:51:25;;;;;;;4.22;2.15;;;20.30;50.70;;;;;;5087589;23;20029;-49
2021/09/05 07:53:27;;;;;;;6.95;2.55;;;20.30;50.80;;;;;;5084557;23;20858;-54
2021/09/05 07:55:29;;;;;;;5.05;2.30;;;20.30;50.90;;;;;;5089625;23;20025;-49
2021/09/05 07:57:31;;;;;;;8.40;2.70;;;20.30;51.00;;;;;;5088712;23;20029;-50
2021/09/05 07:59:33;;;;;;;4.05;2.50;;;20.30;51.20;;;;;;5085173;23;20175;-54
2021/09/05 08:01:36;;;;;;;4.97;2.75;;;20.30;51.30;;;;;;5085980;23;20025;-48
2021/09/05 08:03:39;;;;;;;5.68;3.47;;;20.20;51.30;;;;;;5088796;23;20029;-57
2021/09/05 08:05:41;;;;;;;4.88;2.47;;;20.20;51.20;;;;;;5087333;23;20378;-51
2021/09/05 08:07:44;;;;;;;4.20;2.70;;;20.20;51.40;;;;;;5088902;23;20025;-55
2021/09/05 08:09:46;;;;;;;4.07;3.17;;;20.20;51.40;;;;;;5087277;23;20029;-52
2021/09/05 08:11:48;;;;;;;5.20;3.78;;;20.20;51.50;;;;;;5113619;23;20092;-56
2021/09/05 08:13:50;;;;;;;6.15;4.55;;;20.20;51.70;;;;;;5088890;23;20021;-53
2021/09/05 08:15:52;;;;;;;11.88;8.48;;;20.20;51.60;;;;;;5090037;23;20033;-54
2021/09/05 08:17:55;;;;;;;14.18;11.95;;;20.10;51.70;;;;;;5090999;23;20045;-56
2021/09/05 08:19:57;;;;;;;12.68;11.48;;;20.10;51.90;;;;;;5091162;23;20028;-50
2021/09/05 08:21:59;;;;;;;11.32;10.10;;;20.10;52.00;;;;;;5090419;23;20060;-51
2021/09/05 08:24:01;;;;;;;16.00;14.30;;;20.10;52.40;;;;;;5109358;23;20031;-51
2021/09/05 08:26:05;;;;;;;16.20;14.40;;;20.10;52.40;;;;;;5112510;23;20032;-56
2021/09/05 08:28:10;;;;;;;25.52;23.08;;;20.10;52.30;;;;;;5091600;23;20035;-53
2021/09/05 08:30:12;;;;;;;24.58;21.48;;;20.10;52.30;;;;;;5087510;23;20052;-55
2021/09/05 08:32:15;;;;;;;24.08;21.38;;;20.10;52.60;;;;;;5090637;23;20033;-57
2021/09/05 08:34:17;;;;;;;25.23;22.60;;;20.10;52.80;;;;;;5088153;23;20021;-54
2021/09/05 08:36:19;;;;;;;25.27;22.55;;;20.10;53.10;;;;;;5087487;23;20055;-55
2021/09/05 08:38:22;;;;;;;25.50;23.20;;;20.10;53.30;;;;;;5087228;23;20025;-55
2021/09/05 08:40:27;;;;;;;24.88;20.90;;;20.10;53.30;;;;;;5086752;23;20036;-55
2021/09/05 08:42:32;;;;;;;25.70;23.20;;;20.10;53.60;;;;;;5088436;23;20040;-54
2021/09/05 08:44:35;;;;;;;24.17;21.90;;;20.10;53.80;;;;;;5088580;23;20099;-56
2021/09/05 08:46:39;;;;;;;34.35;22.58;;;20.10;53.70;;;;;;5088777;23;20025;-52
2021/09/05 08:48:42;;;;;;;25.45;22.95;;;20.10;54.00;;;;;;5087406;23;20147;-53
2021/09/05 08:50:45;;;;;;;;;;;20.10;54.20;;;;;;5089660;23;20044;-54
2021/09/05 08:52:48;;;;;;;25.25;23.05;;;20.10;54.20;;;;;;5087049;23;19917;-53
2021/09/05 08:54:50;;;;;;;24.42;22.08;;;20.10;54.90;;;;;;5088075;23;20405;-56
2021/09/05 08:56:53;;;;;;;24.23;21.98;;;20.10;54.40;;;;;;5089880;23;20127;-54
2021/09/05 08:58:55;;;;;;;24.13;21.92;;;20.10;54.40;;;;;;5111762;23;20032;-57
2021/09/05 09:00:58;;;;;;;22.58;20.60;;;20.10;54.60;;;;;;5090753;23;20040;-54
2021/09/05 09:03:01;;;;;;;21.57;19.50;;;20.10;54.30;;;;;;5086440;23;20029;-52
2021/09/05 09:05:03;;;;;;;22.55;19.10;;;20.10;54.10;;;;;;5089320;23;20029;-55
2021/09/05 09:07:13;;;;;;;19.88;17.90;;;20.10;54.10;;;;;;5088491;23;20440;-56
2021/09/05 09:09:16;;;;;;;19.85;17.75;;;20.10;54.30;;;;;;5111458;23;20052;-57
2021/09/05 09:11:18;;;;;;;19.08;17.13;;;20.10;54.40;;;;;;5088711;23;20074;-56
2021/09/05 09:13:24;;;;;;;19.10;17.00;;;20.10;54.70;;;;;;5089584;23;20033;-57
2021/09/05 09:15:32;;;;;;;19.38;17.38;;;20.10;54.70;;;;;;5087592;23;20031;-56
2021/09/05 09:17:40;;;;;;;18.83;16.98;;;20.10;54.70;;;;;;5090508;23;20087;-58
2021/09/05 09:19:47;;;;;;;18.20;16.33;;;20.10;54.80;;;;;;5088271;23;20029;-57
2021/09/05 09:21:50;;;;;;;17.38;15.77;;;20.10;54.90;;;;;;5090308;23;20725;-57
2021/09/05 09:23:52;;;;;;;18.27;16.60;;;20.10;55.00;;;;;;5087792;23;20029;-52
2021/09/05 09:26:06;;;;;;;17.63;15.95;;;20.10;55.00;;;;;;5090127;23;20025;-56
2021/09/05 09:28:29;;;;;;;17.73;16.00;;;20.10;55.20;;;;;;5089791;23;20028;-57
2021/09/05 09:30:35;;;;;;;17.45;15.77;;;20.10;55.40;;;;;;5069149;23;20021;-56
2021/09/05 09:32:38;;;;;;;17.58;15.60;;;20.10;55.60;;;;;;5108117;23;20059;-57
2021/09/05 09:34:42;;;;;;;16.08;14.65;;;20.10;55.60;;;;;;5086526;23;20029;-51
2021/09/05 09:36:45;;;;;;;16.00;14.45;;;20.10;55.60;;;;;;5086962;23;20033;-53
2021/09/05 09:38:56;;;;;;;15.90;14.20;;;20.10;55.60;;;;;;5086953;23;20163;-57
2021/09/05 09:41:17;;;;;;;15.38;13.88;;;20.10;55.80;;;;;;5085257;23;20060;-51
2021/09/05 09:43:23;;;;;;;14.98;13.57;;;20.10;55.90;;;;;;5085715;23;20107;-56
2021/09/05 09:45:25;;;;;;;15.07;13.73;;;20.10;56.10;;;;;;5087434;23;20036;-57
2021/09/05 09:47:48;;;;;;;14.88;13.52;;;20.10;56.00;;;;;;5059339;23;20731;-56
2021/09/05 09:49:51;;;;;;;15.00;13.52;;;20.10;55.90;;;;;;5085331;23;20144;-55
2021/09/05 09:52:00;;;;;;;15.25;13.85;;;20.00;56.00;;;;;;5086934;23;20049;-52
2021/09/05 09:54:03;;;;;;;14.32;12.82;;;20.00;56.00;;;;;;5085566;23;20041;-54
2021/09/05 09:56:07;;;;;;;15.32;13.40;;;20.00;56.00;;;;;;5109036;23;20029;-53
2021/09/05 09:58:09;;;;;;;13.35;12.10;;;20.00;55.90;;;;;;5085636;23;20029;-57
2021/09/05 10:00:12;;;;;;;12.00;10.68;;;20.00;55.80;;;;;;5084535;23;20057;-54
2021/09/05 10:02:18;;;;;;;11.80;10.70;;;20.00;55.00;;;;;;5088184;23;20035;-53
2021/09/05 10:04:21;;;;;;;11.25;10.15;;;20.00;54.80;;;;;;5085941;23;20025;-57
2021/09/05 10:06:29;;;;;;;11.63;10.45;;;20.00;54.90;;;;;;5086643;23;20029;-48
2021/09/05 10:08:36;;;;;;;11.98;10.80;;;20.00;54.90;;;;;;5086568;23;20096;-50
2021/09/05 10:10:38;;;;;;;11.25;10.25;;;20.00;54.90;;;;;;5087798;23;20028;-53
2021/09/05 10:12:42;;;;;;;10.23;9.23;;;20.00;54.90;;;;;;5086967;23;20025;-50
2021/09/05 10:14:55;;;;;;;11.27;10.18;;;20.00;54.80;;;;;;5087227;23;20298;-57
2021/09/05 10:16:58;;;;;;;10.05;9.07;;;19.90;54.80;;;;;;5082273;23;20044;-56
2021/09/05 10:19:06;;;;;;;10.57;9.43;;;19.90;54.70;;;;;;5084672;23;20021;-55
2021/09/05 10:21:09;;;;;;;10.02;9.13;;;19.90;54.70;;;;;;5087986;23;20469;-50
2021/09/05 10:23:12;;;;;;;9.68;8.77;;;19.90;54.70;;;;;;5086196;23;20044;-53
2021/09/05 10:25:17;;;;;;;10.23;9.23;;;19.90;54.70;;;;;;5086649;23;20025;-50
2021/09/05 10:27:34;;;;;;;9.20;8.40;;;19.90;54.70;;;;;;5086849;23;20812;-52
2021/09/05 10:29:36;;;;;;;9.00;8.10;;;19.80;54.70;;;;;;5083678;23;20025;-53
2021/09/05 10:31:41;;;;;;;9.80;8.02;;;19.80;54.70;;;;;;5085339;23;20033;-56
2021/09/05 10:33:43;;;;;;;8.75;7.85;;;19.80;54.90;;;;;;5085638;23;20029;-56
2021/09/05 10:35:48;;;;;;;8.98;8.10;;;19.80;55.10;;;;;;5087876;23;20025;-56
2021/09/05 10:37:50;;;;;;;8.50;7.53;;;19.80;55.60;;;;;;5088015;23;20029;-57